Terminal Aerodrome Forecast
Issued by NWS

Home | Current Version | Previous Version | Text Only | Print | Product List | Glossary On
Versions: 1 2 3 4 5 6 7 8 9 10 11 12 13 14 15
000
FTUS42 KTBW 272300
TAFPGD
TAF
KPGD 272329Z 2800/2824 07004KT P6SM FEW070
     FM281500 13005KT P6SM SCT035
     FM281900 16006KT P6SM VCTS SCT040CB=

USA.gov is the U.S. government's official web portal to all federal, state and local government web resources and services.